Terminal Aerodrome Forecast
Issued by NWS Grand Junction, CO

Home | Current Version | Previous Version | Text Only | Print | Product List | Glossary On
Versions: 1 2 3 4 5 6 7 8 9 10 11 12
000
FTUS45 KGJT 162327
TAFGJT
TAF
KGJT 162327Z 1700/1724 31010KT P6SM SKC
     FM170200 04004KT P6SM SKC
     FM170600 11008KT P6SM SKC
     FM171700 14004KT P6SM SKC
     FM172100 30004KT P6SM SKC=

USA.gov is the U.S. government's official web portal to all federal, state and local government web resources and services.